createdAt,value
2022-09-30T00:01:39.847Z,97504.53
2022-09-30T00:04:09.360Z,97509.88
2022-09-30T00:06:39.102Z,97522.34
2022-09-30T00:09:07.603Z,97537.59
2022-09-30T00:11:38.754Z,97547.00
2022-09-30T00:14:09.276Z,97556.47
2022-09-30T00:16:38.872Z,97565.34
2022-09-30T00:19:07.629Z,97566.91
2022-09-30T00:21:35.831Z,97583.03
2022-09-30T00:24:06.588Z,97569.06
2022-09-30T00:26:35.385Z,97562.97
2022-09-30T00:29:04.693Z,97568.34
2022-09-30T00:31:35.351Z,97562.66
2022-09-30T00:34:11.430Z,97571.88
2022-09-30T00:36:44.261Z,97557.06
2022-09-30T00:39:16.322Z,97561.44
2022-09-30T00:41:46.886Z,97562.47
2022-09-30T00:44:44.842Z,97549.44
2022-09-30T00:47:37.807Z,97563.25
2022-09-30T00:50:15.344Z,97565.25
2022-09-30T00:52:45.533Z,97574.00
2022-09-30T00:55:25.990Z,97567.94
2022-09-30T00:57:54.276Z,97573.56
2022-09-30T01:00:22.563Z,97581.78
2022-09-30T01:02:51.356Z,97592.94
2022-09-30T01:05:20.334Z,97607.88
2022-09-30T01:07:50.315Z,97607.28
2022-09-30T01:10:20.251Z,97606.44
2022-09-30T01:12:48.727Z,97623.06
2022-09-30T01:15:17.604Z,97617.03
2022-09-30T01:17:55.231Z,97621.41
2022-09-30T01:21:01.758Z,97621.53
2022-09-30T01:24:11.488Z,97618.69
2022-09-30T01:27:03.829Z,97635.75
2022-09-30T01:30:04.849Z,97636.34
2022-09-30T01:32:57.788Z,97622.25
2022-09-30T01:35:36.507Z,97634.91
2022-09-30T01:38:13.982Z,97641.13
2022-09-30T01:40:48.455Z,97627.84
2022-09-30T01:43:26.021Z,97629.84
2022-09-30T01:46:00.007Z,97629.13
2022-09-30T01:48:37.834Z,97631.81
2022-09-30T01:51:10.859Z,97643.22
2022-09-30T01:53:43.640Z,97635.88
2022-09-30T01:56:19.689Z,97639.00
2022-09-30T01:58:55.518Z,97645.63
2022-09-30T02:01:31.728Z,97625.72
2022-09-30T02:04:06.883Z,97621.06
2022-09-30T02:06:40.471Z,97617.25
2022-09-30T02:09:14.598Z,97629.84
2022-09-30T02:11:43.842Z,97623.06
2022-09-30T02:14:17.827Z,97617.84
2022-09-30T02:16:50.928Z,97612.63
2022-09-30T02:19:25.527Z,97602.16
2022-09-30T02:21:58.058Z,97601.63
2022-09-30T02:24:29.513Z,97612.63
2022-09-30T02:27:00.628Z,97612.38
2022-09-30T02:29:32.734Z,97614.63
2022-09-30T02:32:07.323Z,97615.16
2022-09-30T02:34:41.821Z,97620.38
2022-09-30T02:37:17.623Z,97616.84
2022-09-30T02:39:52.650Z,97628.72
2022-09-30T02:42:26.759Z,97638.25
2022-09-30T02:44:57.646Z,97645.47
2022-09-30T02:47:32.149Z,97663.53
2022-09-30T02:50:07.598Z,97684.50
2022-09-30T02:52:46.211Z,97681.38
2022-09-30T02:55:21.098Z,97687.59
2022-09-30T02:58:01.093Z,97694.94
2022-09-30T03:00:29.966Z,97695.47
2022-09-30T03:03:01.317Z,97697.47
2022-09-30T03:05:30.803Z,97711.72
2022-09-30T03:07:59.111Z,97700.03
2022-09-30T03:10:27.256Z,97709.31
2022-09-30T03:13:11.759Z,97713.00
2022-09-30T03:15:53.067Z,97720.03
2022-09-30T03:18:39.060Z,97704.50
2022-09-30T03:21:23.763Z,97719.19
2022-09-30T03:24:24.482Z,97731.00
2022-09-30T03:27:04.420Z,97747.63
2022-09-30T03:29:43.524Z,97755.56
2022-09-30T03:32:23.976Z,97765.69
2022-09-30T03:35:04.646Z,97774.16
2022-09-30T03:37:48.069Z,97779.09
2022-09-30T03:40:24.587Z,97772.75
2022-09-30T03:42:57.328Z,97794.47
2022-09-30T03:45:32.024Z,97820.28
2022-09-30T03:48:05.874Z,97819.97
2022-09-30T03:50:36.591Z,97823.78
2022-09-30T03:53:16.633Z,97827.19
2022-09-30T03:55:48.973Z,97827.31
2022-09-30T03:58:17.588Z,97828.44
2022-09-30T04:00:50.209Z,97833.78
2022-09-30T04:03:19.715Z,97834.50
2022-09-30T04:05:48.520Z,97831.38
2022-09-30T04:08:18.156Z,97838.03
2022-09-30T04:10:46.600Z,97840.72
2022-09-30T04:13:14.815Z,97852.81
2022-09-30T04:15:43.480Z,97851.44
2022-09-30T04:18:42.460Z,97856.91
2022-09-30T04:21:13.054Z,97857.09
2022-09-30T04:23:58.433Z,97866.66
2022-09-30T04:26:31.830Z,97879.03
2022-09-30T04:29:33.614Z,97881.16
2022-09-30T04:32:34.331Z,97882.16
2022-09-30T04:35:09.003Z,97880.75
2022-09-30T04:37:37.262Z,97881.03
2022-09-30T09:05:29.641Z,97559.75
2022-09-30T09:08:05.989Z,97551.38
2022-09-30T09:10:43.714Z,97530.97
2022-09-30T09:13:37.655Z,97527.28
2022-09-30T09:16:11.991Z,97514.78
2022-09-30T09:18:47.969Z,97509.50
2022-09-30T09:21:33.477Z,97502.25
2022-09-30T09:24:04.119Z,97501.88
2022-09-30T09:26:37.044Z,97485.31
2022-09-30T09:29:17.203Z,97492.00
2022-09-30T09:31:45.540Z,97489.13
2022-09-30T09:34:14.174Z,97473.06
2022-09-30T09:36:53.282Z,97488.84
2022-09-30T09:39:51.501Z,97482.22
2022-09-30T09:42:36.854Z,97497.56
2022-09-30T09:45:10.537Z,97487.81
2022-09-30T09:47:38.744Z,97487.94
2022-09-30T09:50:17.765Z,97467.94
2022-09-30T09:53:03.182Z,97469.66
2022-09-30T09:55:31.199Z,97461.91
2022-09-30T09:58:11.284Z,97487.38
2022-09-30T10:00:56.820Z,97481.38
2022-09-30T10:03:28.174Z,97487.34
2022-09-30T10:06:06.589Z,97478.22
2022-09-30T10:08:38.789Z,97506.06
2022-09-30T10:11:08.596Z,97492.63
2022-09-30T10:13:44.328Z,97480.59
2022-09-30T10:16:30.062Z,97487.94
2022-09-30T10:18:58.662Z,97482.41
2022-09-30T10:21:28.295Z,97477.72
2022-09-30T10:23:59.961Z,97480.34
2022-09-30T10:26:29.497Z,97472.72
2022-09-30T10:29:00.939Z,97464.59
2022-09-30T10:31:31.940Z,97488.09
2022-09-30T10:34:05.373Z,97506.66
2022-09-30T10:36:36.607Z,97516.28
2022-09-30T10:39:08.784Z,97544.22
2022-09-30T10:41:39.379Z,97557.50
2022-09-30T10:44:14.875Z,97562.91
2022-09-30T10:46:44.854Z,97537.84
2022-09-30T10:49:28.500Z,97570.63
2022-09-30T10:51:57.819Z,97553.97
2022-09-30T10:54:47.943Z,97544.66
2022-09-30T10:57:17.562Z,97548.97
2022-09-30T10:59:46.914Z,97528.59
2022-09-30T11:02:24.806Z,97520.94
2022-09-30T11:05:01.276Z,97529.34
2022-09-30T11:07:41.063Z,97526.59
2022-09-30T11:10:32.981Z,97516.22
2022-09-30T11:13:09.457Z,97513.38
2022-09-30T11:15:46.721Z,97486.75
2022-09-30T11:18:22.946Z,97520.84
2022-09-30T11:29:46.791Z,97569.25
2022-09-30T11:32:52.432Z,97559.50
2022-09-30T11:35:45.811Z,97579.44
2022-09-30T11:38:57.481Z,97594.47
2022-09-30T11:41:35.240Z,97630.03
2022-09-30T11:44:30.541Z,97642.03
2022-09-30T11:47:14.962Z,97675.41
2022-09-30T11:50:11.319Z,97661.34
2022-09-30T11:53:07.792Z,97701.88
2022-09-30T11:56:03.691Z,97703.22
2022-09-30T11:58:45.020Z,97733.72
2022-09-30T12:01:26.916Z,97752.94
2022-09-30T12:04:06.738Z,97749.19
2022-09-30T12:06:54.334Z,97796.94
2022-09-30T12:09:44.320Z,97809.22
2022-09-30T12:12:32.851Z,97769.34
2022-09-30T12:18:41.749Z,97774.88
2022-09-30T12:21:21.371Z,97783.78
2022-09-30T12:23:56.989Z,97793.63
2022-09-30T12:26:31.209Z,97755.09
2022-09-30T12:29:24.994Z,97791.50
2022-09-30T12:32:32.174Z,97825.44
2022-09-30T12:35:33.421Z,97813.88
2022-09-30T12:38:24.776Z,97801.25
2022-09-30T12:41:12.252Z,97795.38
2022-09-30T12:44:09.651Z,97797.97
2022-09-30T12:46:54.047Z,97780.28
2022-09-30T12:49:29.305Z,97781.53
2022-09-30T12:52:09.188Z,97805.72
2022-09-30T12:54:41.813Z,97838.19
2022-09-30T12:57:11.270Z,97857.09
2022-09-30T12:59:48.677Z,97845.75
2022-09-30T13:02:34.624Z,97847.09
2022-09-30T13:05:40.221Z,97845.38
2022-09-30T13:08:26.117Z,97824.19
2022-09-30T13:10:59.460Z,97854.59
2022-09-30T13:13:32.384Z,97833.13
2022-09-30T13:16:06.814Z,97789.13
2022-09-30T13:19:03.786Z,97838.94
2022-09-30T13:21:32.482Z,97865.66
2022-09-30T13:24:05.809Z,97864.69
2022-09-30T13:26:40.222Z,97868.94
2022-09-30T13:29:48.569Z,97902.44
2022-09-30T13:32:34.263Z,97899.38
2022-09-30T13:35:03.109Z,97872.94
2022-09-30T13:37:44.722Z,97912.53
2022-09-30T13:40:43.599Z,97941.69
2022-09-30T13:43:22.159Z,97915.63
2022-09-30T13:45:54.594Z,97930.03
2022-09-30T13:48:31.250Z,97918.59
2022-09-30T13:51:02.010Z,97909.13
2022-09-30T13:53:34.893Z,97924.59
2022-09-30T13:56:08.569Z,97933.81
2022-09-30T13:58:53.623Z,97898.03
2022-09-30T14:01:47.269Z,97888.06
2022-09-30T14:04:37.581Z,97910.00
2022-09-30T14:07:14.253Z,97879.59
2022-09-30T14:09:56.301Z,97890.72
2022-09-30T14:13:03.184Z,97939.81
2022-09-30T14:15:50.893Z,97951.50
2022-09-30T14:18:42.586Z,97969.53
2022-09-30T14:21:27.107Z,97977.69
2022-09-30T14:24:04.326Z,97975.84
2022-09-30T14:26:48.651Z,97982.66
2022-09-30T14:29:27.322Z,97965.91
2022-09-30T14:31:56.697Z,97969.03
2022-09-30T14:34:29.673Z,97962.44
2022-09-30T14:36:58.115Z,97961.47
2022-09-30T14:39:32.068Z,97986.22
2022-09-30T14:42:05.398Z,98011.03
2022-09-30T14:44:36.982Z,97998.88
2022-09-30T14:47:06.670Z,97989.22
2022-09-30T14:49:38.737Z,97981.59
2022-09-30T14:52:07.675Z,97973.00
2022-09-30T14:54:35.912Z,97998.59
2022-09-30T14:57:04.553Z,98004.09
2022-09-30T14:59:42.104Z,98005.03
2022-09-30T15:02:18.923Z,98003.72
2022-09-30T15:04:51.607Z,98028.19
2022-09-30T15:07:22.516Z,98056.97
2022-09-30T15:09:54.331Z,98065.25
2022-09-30T15:12:26.921Z,98060.47
2022-09-30T15:14:58.750Z,98068.16
2022-09-30T15:17:30.046Z,98085.63
2022-09-30T15:20:00.037Z,98091.78
2022-09-30T15:22:31.250Z,98102.22
2022-09-30T15:25:01.219Z,98089.91
2022-09-30T15:27:45.057Z,98093.72
2022-09-30T15:30:29.413Z,98083.94
2022-09-30T15:33:03.152Z,98075.28
2022-09-30T15:35:34.659Z,98097.91
2022-09-30T15:38:17.638Z,98099.41
2022-09-30T15:40:50.638Z,98095.59
2022-09-30T15:43:34.442Z,98073.56
2022-09-30T15:46:31.025Z,98086.78
2022-09-30T15:49:01.763Z,98116.38
2022-09-30T15:51:37.886Z,98128.19
2022-09-30T15:54:31.945Z,98127.81
2022-09-30T15:57:06.478Z,98123.19
2022-09-30T16:00:00.243Z,98146.94
2022-09-30T16:02:31.482Z,98155.09
2022-09-30T16:05:02.145Z,98140.56
2022-09-30T16:07:32.566Z,98149.38
2022-09-30T16:10:01.130Z,98151.66
2022-09-30T16:12:33.736Z,98166.59
2022-09-30T16:15:08.553Z,98186.47
2022-09-30T16:17:40.309Z,98187.78
2022-09-30T16:20:23.847Z,98208.19
2022-09-30T16:22:55.077Z,98202.41
2022-09-30T16:25:26.616Z,98205.78
2022-09-30T16:27:59.406Z,98201.66
2022-09-30T16:30:32.260Z,98194.91
2022-09-30T16:33:10.139Z,98214.03
2022-09-30T16:35:57.680Z,98202.88
2022-09-30T16:38:26.123Z,98223.81
2022-09-30T16:40:54.755Z,98224.47
2022-09-30T16:43:24.855Z,98233.72
2022-09-30T16:45:53.209Z,98222.94
2022-09-30T16:48:26.201Z,98224.63
2022-09-30T16:50:59.554Z,98197.03
2022-09-30T16:53:27.803Z,98197.22
2022-09-30T16:55:57.184Z,98204.69
2022-09-30T16:58:25.566Z,98191.97
2022-09-30T17:00:53.916Z,98167.19
2022-09-30T17:03:22.739Z,98151.13
2022-09-30T17:05:53.001Z,98138.38
2022-09-30T17:08:22.571Z,98129.78
2022-09-30T17:10:51.193Z,98120.19
2022-09-30T17:13:20.094Z,98110.22
2022-09-30T17:15:52.457Z,98105.06
2022-09-30T17:18:20.860Z,98098.47
2022-09-30T17:20:52.826Z,98082.28
2022-09-30T17:23:24.474Z,98060.19
2022-09-30T17:25:53.774Z,98041.38
2022-09-30T17:28:22.628Z,98035.69
2022-09-30T17:30:50.675Z,98032.69
2022-09-30T17:33:19.840Z,98037.28
2022-09-30T17:36:02.233Z,98021.63
2022-09-30T17:38:32.445Z,98003.56
2022-09-30T17:41:18.446Z,97992.25
2022-09-30T17:43:46.756Z,97980.97
2022-09-30T17:46:16.121Z,97974.91
2022-09-30T17:48:44.111Z,97970.41
2022-09-30T17:51:12.264Z,97965.50
2022-09-30T17:53:42.180Z,97938.47
2022-09-30T17:56:17.157Z,97906.16
2022-09-30T17:58:47.966Z,97889.03
2022-09-30T18:01:17.588Z,97870.50
2022-09-30T18:03:53.178Z,97844.78
2022-09-30T18:06:21.631Z,97818.19
2022-09-30T18:08:54.413Z,97791.16
2022-09-30T18:11:29.453Z,97764.13
2022-09-30T18:14:02.826Z,97736.63
2022-09-30T18:16:33.871Z,97735.53
2022-09-30T18:19:04.300Z,97722.34
2022-09-30T18:21:33.729Z,97712.22
2022-09-30T18:24:06.721Z,97713.91
2022-09-30T18:26:36.020Z,97697.38
2022-09-30T18:29:08.320Z,97697.56
2022-09-30T18:31:48.106Z,97691.50
2022-09-30T18:34:36.047Z,97702.97
2022-09-30T18:37:07.246Z,97711.47
2022-09-30T18:39:41.910Z,97715.28
2022-09-30T18:42:39.613Z,97716.00
2022-09-30T18:45:25.476Z,97719.91
2022-09-30T18:47:59.188Z,97726.47
2022-09-30T18:51:23.773Z,97720.41
